Terminal Aerodrome Forecast
Issued by NWS

Home | Current Version | Previous Version | Graphics & Text | Print | Product List | Glossary On
Versions: 1 2 3 4 5 6 7 8 9 10 11 12
000
FTUS45 KGGW 252325
TAFSDY
TAF
KSDY 252325Z 2600/2624 34020G30KT P6SM VCSH BKN070
     FM260500 34011KT P6SM FEW090 SCT150
     FM261200 29006KT P6SM SKC
     FM261900 29012KT P6SM SKC=

USA.gov is the U.S. government's official web portal to all federal, state and local government web resources and services.